Time;durP1;ratioP1;P1;durP2;ratioP2;P2;SDS_P1;SDS_P2;PMS_P1;PMS_P2;Temp;Humidity;BMP_temperature;BMP_pressure;BME280_temperature;BME280_humidity;BME280_pressure;Samples;Min_cycle;Max_cycle;Signal;HPM_P1;HPM_P2
2021/08/13 00:01:32;;;;;;;18.87;17.37;;;24.50;99.90;;;;;;2604087;54;20391;-58
2021/08/13 00:04:03;;;;;;;19.43;17.93;;;24.50;99.90;;;;;;2605842;54;20383;-59
2021/08/13 00:06:34;;;;;;;19.50;17.90;;;24.50;99.90;;;;;;2606412;54;20966;-58
2021/08/13 00:09:03;;;;;;;19.27;17.80;;;24.50;99.90;;;;;;2607252;54;21020;-54
2021/08/13 00:11:32;;;;;;;19.27;17.73;;;24.50;99.90;;;;;;2606078;54;20390;-58
2021/08/13 00:14:01;;;;;;;18.03;16.63;;;24.50;99.90;;;;;;2607044;54;20437;-57
2021/08/13 00:16:30;;;;;;;18.30;16.97;;;24.50;99.90;;;;;;2608262;54;21214;-58
2021/08/13 00:19:00;;;;;;;19.17;17.77;;;24.50;99.90;;;;;;2607136;54;21132;-56
2021/08/13 00:21:31;;;;;;;19.03;17.63;;;24.50;99.90;;;;;;2605993;54;20771;-58
2021/08/13 00:24:01;;;;;;;18.30;16.80;;;24.50;99.90;;;;;;2606341;39;20801;-58
2021/08/13 00:26:31;;;;;;;18.83;17.27;;;24.50;99.90;;;;;;2606693;54;20433;-58
2021/08/13 00:29:00;;;;;;;17.37;15.97;;;24.50;99.90;;;;;;2608746;54;20387;-58
2021/08/13 00:31:29;;;;;;;19.10;17.77;;;24.50;99.90;;;;;;2607526;54;20482;-57
2021/08/13 00:34:00;;;;;;;16.93;15.70;;;24.50;99.90;;;;;;2607270;54;20402;-57
2021/08/13 00:36:30;;;;;;;18.20;16.90;;;24.50;99.90;;;;;;2605757;54;20477;-58
2021/08/13 00:39:03;;;;;;;17.80;16.47;;;24.50;99.90;;;;;;2606762;54;20403;-56
2021/08/13 00:41:34;;;;;;;18.97;17.57;;;24.50;99.90;;;;;;2607104;39;20697;-56
2021/08/13 00:44:06;;;;;;;18.50;17.00;;;24.50;99.90;;;;;;2607191;54;20410;-58
2021/08/13 00:46:36;;;;;;;17.97;16.57;;;24.50;99.90;;;;;;2607681;54;20421;-58
2021/08/13 00:49:21;;;;;;;18.87;17.47;;;24.50;99.90;;;;;;2606900;54;20395;-58
2021/08/13 00:51:54;;;;;;;19.50;18.10;;;24.50;99.90;;;;;;2606931;54;20398;-57
2021/08/13 00:54:25;;;;;;;19.80;18.30;;;24.50;99.90;;;;;;2606726;54;20784;-58
2021/08/13 00:56:55;;;;;;;17.93;16.67;;;24.50;99.90;;;;;;2607643;54;20545;-58
2021/08/13 00:59:44;;;;;;;17.90;16.60;;;24.50;99.90;;;;;;2606948;54;20914;-58
2021/08/13 01:02:20;;;;;;;18.50;17.20;;;24.50;99.90;;;;;;2607572;54;20429;-57
2021/08/13 01:05:02;;;;;;;17.73;16.43;;;24.50;99.90;;;;;;2607374;54;20751;-58
2021/08/13 01:07:33;;;;;;;17.60;16.17;;;24.50;99.90;;;;;;2607323;54;20383;-55
2021/08/13 01:10:06;;;;;;;18.53;17.23;;;24.50;99.90;;;;;;2607576;39;20749;-58
2021/08/13 01:12:53;;;;;;;17.50;16.20;;;24.40;99.90;;;;;;2608077;39;20709;-58
2021/08/13 01:15:24;;;;;;;19.23;17.83;;;24.50;99.90;;;;;;2607488;47;20436;-58
2021/08/13 01:17:59;;;;;;;19.13;17.70;;;24.50;99.90;;;;;;2606907;54;20391;-58
2021/08/13 01:21:00;;;;;;;19.90;18.17;;;24.40;99.90;;;;;;2606809;54;20475;-58
2021/08/13 01:23:37;;;;;;;19.23;17.73;;;24.50;99.90;;;;;;2608057;54;20454;-57
2021/08/13 01:26:08;;;;;;;18.27;16.87;;;24.50;99.90;;;;;;2606872;31;20733;-57
2021/08/13 01:28:50;;;;;;;18.83;17.37;;;24.40;99.90;;;;;;2606239;54;20418;-57
2021/08/13 01:31:23;;;;;;;17.80;16.50;;;24.40;99.90;;;;;;2607812;54;21166;-58
2021/08/13 01:34:00;;;;;;;19.10;17.67;;;24.40;99.90;;;;;;2609326;48;20398;-58
2021/08/13 01:36:31;;;;;;;19.37;17.97;;;24.40;99.90;;;;;;2605201;54;20580;-59
2021/08/13 01:39:03;;;;;;;18.87;17.50;;;24.40;99.90;;;;;;2607292;54;20758;-57
2021/08/13 01:41:35;;;;;;;19.33;18.03;;;24.40;99.90;;;;;;2607474;54;20437;-56
2021/08/13 01:44:10;;;;;;;20.03;18.33;;;24.40;99.90;;;;;;2607456;54;20391;-58
2021/08/13 01:46:41;;;;;;;19.60;18.13;;;24.40;99.90;;;;;;2607315;54;20784;-57
2021/08/13 01:49:12;;;;;;;18.80;17.50;;;24.40;99.90;;;;;;2607803;54;20414;-57
2021/08/13 01:51:43;;;;;;;18.77;17.50;;;24.40;99.90;;;;;;2606759;54;20426;-57
2021/08/13 01:54:13;;;;;;;19.93;18.43;;;24.40;99.90;;;;;;2606749;47;20402;-57
2021/08/13 01:56:47;;;;;;;18.27;16.87;;;24.40;99.90;;;;;;2607878;54;20398;-58
2021/08/13 01:59:18;;;;;;;19.50;18.10;;;24.40;99.90;;;;;;2607066;54;21243;-58
2021/08/13 02:01:49;;;;;;;20.70;19.20;;;24.40;99.90;;;;;;2605483;54;20405;-54
2021/08/13 02:04:21;;;;;;;18.50;17.20;;;24.40;99.90;;;;;;2607296;54;20417;-57
2021/08/13 02:06:57;;;;;;;19.00;17.77;;;24.40;99.90;;;;;;2608593;54;20505;-57
2021/08/13 02:09:28;;;;;;;21.50;19.80;;;24.40;99.90;;;;;;2608410;54;20410;-59
2021/08/13 02:11:58;;;;;;;21.87;20.20;;;24.40;99.90;;;;;;2605922;54;20817;-58
2021/08/13 02:14:32;;;;;;;19.10;17.73;;;24.40;99.90;;;;;;2606670;54;20409;-57
2021/08/13 02:17:06;;;;;;;19.87;17.90;;;24.40;99.90;;;;;;2605914;54;20395;-57
2021/08/13 02:19:44;;;;;;;19.67;18.20;;;24.40;99.90;;;;;;2606348;54;20379;-57
2021/08/13 02:22:15;;;;;;;18.93;17.53;;;24.40;99.90;;;;;;2607953;39;20760;-58
2021/08/13 02:24:45;;;;;;;20.30;18.80;;;24.40;99.90;;;;;;2607356;54;20421;-58
2021/08/13 02:27:18;;;;;;;19.47;17.87;;;24.40;99.90;;;;;;2604656;54;20403;-59
2021/08/13 02:29:48;;;;;;;19.97;18.30;;;24.40;99.90;;;;;;2608740;54;20502;-58
2021/08/13 02:32:18;;;;;;;19.67;18.27;;;24.40;99.90;;;;;;2607048;54;20395;-57
2021/08/13 02:34:49;;;;;;;18.67;17.20;;;24.40;99.90;;;;;;2607941;39;20783;-55
2021/08/13 02:37:28;;;;;;;20.00;18.50;;;24.40;99.90;;;;;;2607782;54;20513;-58
2021/08/13 02:39:59;;;;;;;20.43;19.03;;;24.40;99.90;;;;;;2606911;39;20715;-58
2021/08/13 02:42:40;;;;;;;19.80;18.30;;;24.40;99.90;;;;;;2606248;47;21112;-59
2021/08/13 02:45:12;;;;;;;18.90;17.50;;;24.40;99.90;;;;;;2606421;54;20949;-59
2021/08/13 02:47:45;;;;;;;20.93;19.53;;;24.40;99.90;;;;;;2606551;54;20391;-57
2021/08/13 02:50:19;;;;;;;19.53;18.13;;;24.40;99.90;;;;;;2607330;54;20403;-55
2021/08/13 02:52:52;;;;;;;17.50;16.30;;;24.40;99.90;;;;;;2606403;54;20382;-58
2021/08/13 02:55:25;;;;;;;19.77;18.17;;;24.40;99.90;;;;;;2607060;54;20402;-57
2021/08/13 02:58:01;;;;;;;19.37;18.00;;;24.40;99.90;;;;;;2606938;54;20919;-58
2021/08/13 03:00:30;;;;;;;19.20;17.70;;;24.40;99.90;;;;;;2607963;39;20737;-58
2021/08/13 03:03:01;;;;;;;19.80;18.30;;;24.40;99.90;;;;;;2606862;54;20804;-56
2021/08/13 03:05:33;;;;;;;18.97;17.47;;;24.40;99.90;;;;;;2606825;54;20533;-55
2021/08/13 03:08:08;;;;;;;19.50;18.10;;;24.40;99.90;;;;;;2607850;39;20782;-57
2021/08/13 03:10:40;;;;;;;19.30;17.83;;;24.40;99.90;;;;;;2607973;39;20728;-57
2021/08/13 03:13:11;;;;;;;18.80;17.27;;;24.40;99.90;;;;;;2608277;54;20401;-58
2021/08/13 03:15:42;;;;;;;20.37;18.87;;;24.40;99.90;;;;;;2607067;47;20918;-58
2021/08/13 03:18:11;;;;;;;19.27;17.83;;;24.40;99.90;;;;;;2608126;54;20371;-57
2021/08/13 03:20:43;;;;;;;19.03;17.63;;;24.40;99.90;;;;;;2606201;47;20426;-55
2021/08/13 03:23:12;;;;;;;19.03;17.53;;;24.40;99.90;;;;;;2606775;54;20411;-58
2021/08/13 03:25:42;;;;;;;19.07;17.63;;;24.40;99.90;;;;;;2606260;54;20415;-58
2021/08/13 03:28:18;;;;;;;19.30;17.80;;;24.40;99.90;;;;;;2608487;54;20826;-56
2021/08/13 03:30:48;;;;;;;20.47;18.97;;;24.40;99.90;;;;;;2606627;39;20744;-55
2021/08/13 03:33:25;;;;;;;20.27;18.70;;;24.40;99.90;;;;;;2607438;54;20800;-58
2021/08/13 03:35:58;;;;;;;19.67;18.27;;;24.40;99.90;;;;;;2606373;54;20958;-58
2021/08/13 03:38:28;;;;;;;19.77;18.37;;;24.40;99.90;;;;;;2606452;54;20489;-57
2021/08/13 03:40:57;;;;;;;18.10;16.87;;;24.40;99.90;;;;;;2608466;54;20482;-57
2021/08/13 03:43:27;;;;;;;19.20;17.80;;;24.40;99.90;;;;;;2606799;54;20401;-57
2021/08/13 03:45:56;;;;;;;19.63;18.23;;;24.40;99.90;;;;;;2606243;54;20394;-58
2021/08/13 03:48:26;;;;;;;20.57;19.03;;;24.40;99.90;;;;;;2604331;54;21069;-58
2021/08/13 03:50:55;;;;;;;20.57;19.17;;;24.40;99.90;;;;;;2606428;54;20502;-55
2021/08/13 03:53:26;;;;;;;20.30;18.90;;;24.40;99.90;;;;;;2606270;39;20697;-59
2021/08/13 03:55:56;;;;;;;19.83;18.33;;;24.40;99.90;;;;;;2605491;54;20522;-57
2021/08/13 03:58:27;;;;;;;20.17;18.67;;;24.40;99.90;;;;;;2606147;54;20363;-57
2021/08/13 04:00:56;;;;;;;19.67;18.13;;;24.40;99.90;;;;;;2604898;39;20768;-56
2021/08/13 04:03:25;;;;;;;19.37;17.97;;;24.40;99.90;;;;;;2604888;47;20407;-58
2021/08/13 04:05:55;;;;;;;21.23;19.70;;;24.40;99.90;;;;;;2602410;54;20449;-58
2021/08/13 04:08:26;;;;;;;20.30;18.90;;;24.40;99.90;;;;;;2605811;54;20846;-58
2021/08/13 04:10:55;;;;;;;21.13;19.73;;;24.40;99.90;;;;;;2605270;54;20391;-57
2021/08/13 04:13:25;;;;;;;22.53;21.03;;;24.40;99.90;;;;;;2604471;53;20405;-57
2021/08/13 04:16:04;;;;;;;21.90;20.40;;;24.40;99.90;;;;;;2604944;39;20724;-58
2021/08/13 04:18:34;;;;;;;22.00;20.50;;;24.40;99.90;;;;;;2604138;54;20394;-56
2021/08/13 04:21:04;;;;;;;24.27;22.47;;;24.40;99.90;;;;;;2603744;54;20417;-58
2021/08/13 04:23:35;;;;;;;21.40;20.00;;;24.40;99.90;;;;;;2600749;54;20417;-58
2021/08/13 04:26:04;;;;;;;22.00;20.27;;;24.40;99.90;;;;;;2602557;47;20450;-58
2021/08/13 04:28:35;;;;;;;21.00;19.40;;;24.40;99.90;;;;;;2596216;54;20840;-55
2021/08/13 04:31:06;;;;;;;21.60;20.10;;;24.40;99.90;;;;;;2599005;54;20394;-59
2021/08/13 04:33:36;;;;;;;21.73;20.10;;;24.40;99.90;;;;;;2599071;39;20832;-58
2021/08/13 04:36:11;;;;;;;22.00;20.10;;;24.40;99.90;;;;;;2596200;54;21149;-55
2021/08/13 04:38:45;;;;;;;22.10;20.60;;;24.40;99.90;;;;;;2598132;47;20379;-54
2021/08/13 04:41:14;;;;;;;21.70;20.20;;;24.40;99.90;;;;;;2599055;54;20389;-59
2021/08/13 04:43:45;;;;;;;20.33;18.90;;;24.40;99.90;;;;;;2599519;39;20735;-58
2021/08/13 04:46:16;;;;;;;20.43;18.80;;;24.40;99.90;;;;;;2598256;39;20726;-58
2021/08/13 04:48:47;;;;;;;19.97;18.47;;;24.40;99.90;;;;;;2599786;54;20387;-58
2021/08/13 04:51:20;;;;;;;20.67;19.07;;;24.40;99.90;;;;;;2597800;54;20437;-58
2021/08/13 04:53:51;;;;;;;20.03;18.63;;;24.40;99.90;;;;;;2599050;39;20655;-57
2021/08/13 04:56:20;;;;;;;20.40;18.90;;;24.40;99.90;;;;;;2597829;39;20763;-57
2021/08/13 04:58:52;;;;;;;20.33;18.90;;;24.40;99.90;;;;;;2598026;54;20441;-56
2021/08/13 05:01:34;;;;;;;20.50;19.10;;;24.40;99.90;;;;;;2595522;54;20407;-57
2021/08/13 05:04:06;;;;;;;20.70;19.13;;;24.40;99.90;;;;;;2595716;54;20476;-57
2021/08/13 05:06:35;;;;;;;21.40;19.80;;;24.40;99.90;;;;;;2595712;54;20541;-57
2021/08/13 05:09:06;;;;;;;21.23;19.73;;;24.40;99.90;;;;;;2596804;54;20836;-55
2021/08/13 05:11:36;;;;;;;20.47;18.83;;;24.40;99.90;;;;;;2595099;54;20390;-58
2021/08/13 05:14:05;;;;;;;22.33;20.13;;;24.40;99.90;;;;;;2594987;54;20998;-56
2021/08/13 05:16:34;;;;;;;19.93;18.50;;;24.40;99.90;;;;;;2594335;54;20522;-57
2021/08/13 05:19:06;;;;;;;21.57;20.07;;;24.40;99.90;;;;;;2596623;54;20383;-58
2021/08/13 05:21:39;;;;;;;20.70;19.23;;;24.40;99.90;;;;;;2592793;54;21005;-56
2021/08/13 05:24:13;;;;;;;20.00;18.70;;;24.40;99.90;;;;;;2592927;54;20386;-55
2021/08/13 05:26:42;;;;;;;21.40;19.90;;;24.40;99.90;;;;;;2593971;54;20752;-59
2021/08/13 05:29:12;;;;;;;22.17;20.27;;;24.40;99.90;;;;;;2594104;54;20418;-58
2021/08/13 05:31:43;;;;;;;20.30;18.90;;;24.40;99.90;;;;;;2592930;54;20909;-59
2021/08/13 05:34:13;;;;;;;20.87;19.17;;;24.40;99.90;;;;;;2589575;54;20882;-57
2021/08/13 05:36:43;;;;;;;22.03;20.43;;;24.40;99.90;;;;;;2592221;54;20383;-57
2021/08/13 05:39:14;;;;;;;19.90;18.43;;;24.40;99.90;;;;;;2592822;39;20976;-58
2021/08/13 05:41:44;;;;;;;20.73;19.33;;;24.40;99.90;;;;;;2588361;39;21064;-57
2021/08/13 05:44:13;;;;;;;19.60;18.10;;;24.40;99.90;;;;;;2591538;54;21030;-58
2021/08/13 05:46:42;;;;;;;20.80;18.97;;;24.40;99.90;;;;;;2586725;54;20399;-57
2021/08/13 05:49:12;;;;;;;20.47;19.00;;;24.40;99.90;;;;;;2588494;54;20673;-57
2021/08/13 05:51:41;;;;;;;19.43;17.97;;;24.40;99.90;;;;;;2588543;54;20383;-59
2021/08/13 05:54:10;;;;;;;19.40;18.10;;;24.40;99.90;;;;;;2586859;54;20703;-58
2021/08/13 05:56:42;;;;;;;19.83;18.53;;;24.40;99.90;;;;;;2588309;54;20395;-60
2021/08/13 05:59:11;;;;;;;19.73;18.47;;;24.40;99.90;;;;;;2590611;39;20748;-59
2021/08/13 06:01:41;;;;;;;20.57;18.83;;;24.40;99.90;;;;;;2587038;54;20829;-58
2021/08/13 06:04:10;;;;;;;19.40;17.70;;;24.40;99.90;;;;;;2588383;54;20811;-57
2021/08/13 06:06:41;;;;;;;18.47;16.90;;;24.10;99.90;;;;;;2584692;39;20606;-58
2021/08/13 06:09:14;;;;;;;18.60;17.20;;;23.80;99.90;;;;;;2584870;54;20393;-58
2021/08/13 06:11:49;;;;;;;17.57;16.37;;;23.50;99.90;;;;;;2587238;54;20391;-58
2021/08/13 06:14:21;;;;;;;17.90;16.70;;;23.30;99.90;;;;;;2586733;54;20411;-57
2021/08/13 06:16:54;;;;;;;18.33;17.03;;;23.20;99.90;;;;;;2588844;54;20394;-58
2021/08/13 06:19:23;;;;;;;20.40;18.77;;;23.00;99.90;;;;;;2589867;54;20410;-58
2021/08/13 06:21:56;;;;;;;19.43;17.63;;;23.00;99.90;;;;;;2589046;54;20419;-56
2021/08/13 06:24:26;;;;;;;19.70;18.20;;;22.90;99.90;;;;;;2588004;47;20417;-58
2021/08/13 06:26:59;;;;;;;19.30;17.90;;;22.90;99.90;;;;;;2585013;54;20454;-58
2021/08/13 06:29:32;;;;;;;18.83;17.50;;;22.90;99.90;;;;;;2583592;54;20506;-57
2021/08/13 06:32:04;;;;;;;19.33;17.90;;;22.90;99.90;;;;;;2585557;54;20500;-57
2021/08/13 06:34:35;;;;;;;19.13;17.23;;;22.90;99.90;;;;;;2583333;54;20390;-56
2021/08/13 06:37:06;;;;;;;19.23;17.80;;;22.80;99.90;;;;;;2584434;52;20411;-57
2021/08/13 06:39:39;;;;;;;17.63;16.43;;;22.90;99.90;;;;;;2587520;54;20444;-59
2021/08/13 06:42:13;;;;;;;19.90;18.37;;;22.90;99.90;;;;;;2582525;54;20430;-58
2021/08/13 06:44:59;;;;;;;19.30;17.67;;;22.90;99.90;;;;;;2583474;54;20429;-58
2021/08/13 06:47:29;;;;;;;18.10;16.80;;;23.00;99.90;;;;;;2583878;54;20387;-57
2021/08/13 06:50:02;;;;;;;19.70;18.20;;;23.00;99.90;;;;;;2584069;54;20415;-57
2021/08/13 06:52:32;;;;;;;20.37;18.67;;;23.10;99.90;;;;;;2579916;54;20438;-58
2021/08/13 06:55:02;;;;;;;20.83;19.10;;;23.10;99.90;;;;;;2578774;54;20584;-58
2021/08/13 06:57:36;;;;;;;20.63;19.20;;;23.00;99.90;;;;;;2579725;54;21542;-58
2021/08/13 07:00:06;;;;;;;19.10;17.70;;;23.00;99.90;;;;;;2581612;54;20407;-58
2021/08/13 07:02:35;;;;;;;20.37;18.67;;;23.10;99.90;;;;;;2579126;54;20510;-58
2021/08/13 07:05:05;;;;;;;17.57;16.33;;;23.10;99.90;;;;;;2582594;51;20387;-57
2021/08/13 07:07:39;;;;;;;19.93;17.90;;;23.20;99.90;;;;;;2584271;54;20409;-58
2021/08/13 07:10:12;;;;;;;18.87;17.37;;;23.20;99.90;;;;;;2584821;54;20410;-57
2021/08/13 07:12:44;;;;;;;18.73;17.30;;;23.20;99.90;;;;;;2585329;39;20759;-58
2021/08/13 07:15:15;;;;;;;20.17;18.70;;;23.20;99.90;;;;;;2584138;54;20449;-58
2021/08/13 07:17:49;;;;;;;19.47;17.97;;;23.30;99.90;;;;;;2584271;54;20430;-58
2021/08/13 07:20:24;;;;;;;19.43;17.73;;;23.40;99.90;;;;;;2582788;54;20519;-58
2021/08/13 07:22:54;;;;;;;19.87;18.43;;;23.50;99.90;;;;;;2584547;54;20430;-58
2021/08/13 07:25:26;;;;;;;20.30;18.70;;;23.50;99.90;;;;;;2583426;54;20407;-58
2021/08/13 07:27:57;;;;;;;20.50;18.70;;;23.60;99.90;;;;;;2580235;54;20414;-58
2021/08/13 07:30:28;;;;;;;20.33;18.93;;;23.60;99.90;;;;;;2579867;54;20407;-58
2021/08/13 07:32:57;;;;;;;21.20;19.20;;;23.60;99.90;;;;;;2578857;54;20398;-58
2021/08/13 07:35:26;;;;;;;21.30;19.40;;;23.70;99.90;;;;;;2582770;54;21444;-58
2021/08/13 07:37:57;;;;;;;20.53;19.07;;;23.70;99.90;;;;;;2577927;54;21052;-57
2021/08/13 07:40:27;;;;;;;19.80;18.40;;;23.80;99.90;;;;;;2577759;54;20833;-57
2021/08/13 07:42:58;;;;;;;20.37;18.77;;;23.80;99.90;;;;;;2572564;54;20415;-58
2021/08/13 07:45:28;;;;;;;19.93;18.17;;;23.90;99.90;;;;;;2573643;54;20403;-59
2021/08/13 07:47:57;;;;;;;20.70;18.90;;;23.90;99.90;;;;;;2584230;39;20747;-58
2021/08/13 07:50:26;;;;;;;21.50;19.73;;;24.00;99.90;;;;;;2580797;54;20383;-58
2021/08/13 07:52:56;;;;;;;21.37;19.60;;;24.00;99.90;;;;;;2578501;54;20409;-57
2021/08/13 07:55:28;;;;;;;22.10;20.30;;;24.10;99.90;;;;;;2577267;54;21015;-57
2021/08/13 07:57:59;;;;;;;22.47;20.53;;;24.10;99.90;;;;;;2577972;54;20477;-57
2021/08/13 08:00:28;;;;;;;22.53;20.83;;;24.20;99.90;;;;;;2579837;46;20414;-58
2021/08/13 08:02:58;;;;;;;21.73;20.00;;;24.20;99.90;;;;;;2580918;54;20386;-59
2021/08/13 08:05:27;;;;;;;21.80;20.10;;;24.20;99.90;;;;;;2579204;54;20418;-58
2021/08/13 08:07:56;;;;;;;23.03;21.10;;;24.30;99.90;;;;;;2579910;54;20422;-58
2021/08/13 08:10:25;;;;;;;22.60;21.00;;;24.30;99.90;;;;;;2577541;54;21201;-58
2021/08/13 08:12:54;;;;;;;23.80;22.00;;;24.30;99.90;;;;;;2575337;39;20817;-58
2021/08/13 08:15:24;;;;;;;22.60;20.70;;;24.40;99.90;;;;;;2578448;54;20402;-58
2021/08/13 08:17:54;;;;;;;22.93;20.87;;;24.40;99.90;;;;;;2579947;54;20426;-58
2021/08/13 08:20:23;;;;;;;20.30;18.60;;;24.40;99.90;;;;;;2578183;54;20382;-57
2021/08/13 08:22:52;;;;;;;22.33;20.23;;;24.40;99.90;;;;;;2580007;54;20378;-56
2021/08/13 08:25:21;;;;;;;21.83;19.97;;;24.50;99.90;;;;;;2573151;54;20599;-57
2021/08/13 08:27:50;;;;;;;21.20;19.60;;;24.50;99.90;;;;;;2572621;39;21082;-54
2021/08/13 08:30:20;;;;;;;20.87;19.33;;;24.50;99.90;;;;;;2567432;54;20382;-56
2021/08/13 08:32:51;;;;;;;23.40;21.60;;;24.40;99.90;;;;;;2566024;39;20856;-53
2021/08/13 08:35:20;;;;;;;21.57;19.93;;;24.50;99.90;;;;;;2567415;54;20406;-56
2021/08/13 08:37:57;;;;;;;22.53;20.70;;;24.50;99.90;;;;;;2574504;54;21357;-58
2021/08/13 08:40:28;;;;;;;21.87;20.40;;;24.50;99.90;;;;;;2575960;39;21165;-58
2021/08/13 08:42:59;;;;;;;22.10;20.23;;;24.50;99.90;;;;;;2579562;54;20869;-58
2021/08/13 08:45:31;;;;;;;23.27;21.37;;;24.50;99.90;;;;;;2577018;54;20403;-58
2021/08/13 08:48:03;;;;;;;21.00;19.50;;;24.50;99.90;;;;;;2576415;39;20797;-59
2021/08/13 08:50:34;;;;;;;21.50;20.00;;;24.50;99.90;;;;;;2573450;54;20910;-59
2021/08/13 08:53:06;;;;;;;22.87;21.07;;;24.60;99.90;;;;;;2578778;54;20398;-59
2021/08/13 08:55:35;;;;;;;21.33;19.93;;;24.60;99.90;;;;;;2579636;39;20736;-58
2021/08/13 08:58:08;;;;;;;20.53;19.00;;;24.60;99.90;;;;;;2578483;54;21040;-58
2021/08/13 09:00:37;;;;;;;20.90;19.30;;;24.60;99.90;;;;;;2577693;39;20646;-57
2021/08/13 09:03:08;;;;;;;19.37;18.27;;;24.60;99.90;;;;;;2575674;54;20414;-58
2021/08/13 09:05:38;;;;;;;20.40;19.13;;;24.60;99.90;;;;;;2570406;54;20417;-59
2021/08/13 09:08:07;;;;;;;19.70;18.20;;;24.60;99.90;;;;;;2569714;54;20529;-54
2021/08/13 09:10:37;;;;;;;20.50;19.03;;;24.60;99.90;;;;;;2568353;54;20399;-58
2021/08/13 09:13:07;;;;;;;20.20;18.80;;;24.60;99.90;;;;;;2568147;39;20696;-58
2021/08/13 09:15:38;;;;;;;19.70;18.13;;;24.60;99.90;;;;;;2572462;54;20450;-56
2021/08/13 09:18:20;;;;;;;18.80;17.50;;;24.60;99.90;;;;;;2578655;54;20418;-58
2021/08/13 09:20:53;;;;;;;18.70;17.50;;;24.60;99.90;;;;;;2576948;54;20417;-57
2021/08/13 09:23:39;;;;;;;18.40;17.20;;;24.70;99.90;;;;;;2576756;54;20374;-57
2021/08/13 09:26:12;;;;;;;18.10;16.90;;;24.70;99.90;;;;;;2575957;54;20440;-57
2021/08/13 09:29:01;;;;;;;19.20;18.00;;;24.70;99.90;;;;;;2575377;54;20573;-58
2021/08/13 09:31:55;;;;;;;18.80;17.30;;;24.70;99.90;;;;;;2573309;54;20406;-58
2021/08/13 09:34:41;;;;;;;18.43;17.23;;;24.70;99.90;;;;;;2582097;54;20460;-57
2021/08/13 09:37:18;;;;;;;18.53;17.17;;;24.70;99.90;;;;;;2577923;54;21329;-58
2021/08/13 09:39:55;;;;;;;19.70;18.33;;;24.70;99.90;;;;;;2576009;54;20410;-58
2021/08/13 09:42:35;;;;;;;18.80;17.57;;;24.70;99.90;;;;;;2575574;54;20435;-59
2021/08/13 09:45:08;;;;;;;18.00;16.70;;;24.70;99.90;;;;;;2575438;54;21181;-58
2021/08/13 09:47:43;;;;;;;19.00;17.60;;;24.70;99.90;;;;;;2568511;54;20868;-58
2021/08/13 09:50:18;;;;;;;18.17;16.97;;;24.80;99.90;;;;;;2570371;39;20661;-57
2021/08/13 09:53:11;;;;;;;18.40;17.10;;;24.70;99.90;;;;;;2571897;47;20418;-57
2021/08/13 09:55:43;;;;;;;17.90;16.73;;;24.80;99.90;;;;;;2573271;54;21289;-58
2021/08/13 09:58:14;;;;;;;18.80;17.07;;;24.80;99.90;;;;;;2574843;54;20387;-57
2021/08/13 10:00:48;;;;;;;17.70;16.40;;;24.80;99.90;;;;;;2572480;54;20406;-58
2021/08/13 10:03:18;;;;;;;16.97;15.87;;;24.80;99.90;;;;;;2573324;54;20418;-58
2021/08/13 10:06:03;;;;;;;16.50;15.50;;;24.80;99.90;;;;;;2577558;54;20453;-58
2021/08/13 10:08:44;;;;;;;18.87;17.57;;;24.80;99.90;;;;;;2578243;54;20406;-58
2021/08/13 10:11:14;;;;;;;18.20;16.90;;;24.80;99.90;;;;;;2574864;54;20449;-58
2021/08/13 10:13:53;;;;;;;18.13;16.77;;;24.80;99.90;;;;;;2578419;54;20433;-58
2021/08/13 10:16:27;;;;;;;18.17;16.63;;;24.80;99.90;;;;;;2565045;47;20546;-58
2021/08/13 10:19:23;;;;;;;18.07;16.67;;;24.80;99.90;;;;;;2570590;54;20441;-58
2021/08/13 10:21:53;;;;;;;17.43;16.13;;;24.80;99.90;;;;;;2576972;54;20429;-58
2021/08/13 10:24:23;;;;;;;17.83;16.40;;;24.80;99.90;;;;;;2578543;54;20391;-57
2021/08/13 10:26:52;;;;;;;17.50;16.30;;;24.80;99.90;;;;;;2577271;54;20443;-57
2021/08/13 10:29:23;;;;;;;16.90;15.70;;;24.80;99.90;;;;;;2581867;54;20417;-56
2021/08/13 10:31:53;;;;;;;16.80;15.60;;;24.80;99.90;;;;;;2579077;54;21584;-56
2021/08/13 10:34:22;;;;;;;17.30;16.10;;;24.80;99.90;;;;;;2580016;54;20426;-56
2021/08/13 10:36:53;;;;;;;17.50;16.20;;;24.80;99.90;;;;;;2555422;47;20399;-56
2021/08/13 10:39:26;;;;;;;16.73;15.47;;;24.90;99.90;;;;;;2574648;39;20748;-56
2021/08/13 10:41:59;;;;;;;16.63;15.37;;;24.80;99.90;;;;;;2575780;54;20446;-57
2021/08/13 10:44:34;;;;;;;15.47;14.53;;;24.90;99.90;;;;;;2579377;54;20402;-57
2021/08/13 10:47:12;;;;;;;17.23;15.67;;;24.90;99.90;;;;;;2571984;54;20463;-55
2021/08/13 10:49:46;;;;;;;16.40;15.30;;;24.90;99.90;;;;;;2576126;39;21213;-55
2021/08/13 10:52:18;;;;;;;16.47;15.07;;;24.90;99.90;;;;;;2573703;54;20409;-57
2021/08/13 10:54:49;;;;;;;16.73;15.57;;;24.90;99.90;;;;;;2579858;54;20403;-57
2021/08/13 10:57:55;;;;;;;15.40;14.10;;;24.90;99.90;;;;;;2582197;54;20549;-56
2021/08/13 11:00:26;;;;;;;17.10;15.70;;;24.90;99.90;;;;;;2583314;54;20385;-56
2021/08/13 11:03:19;;;;;;;16.67;15.43;;;24.90;99.90;;;;;;2576560;54;20398;-55
2021/08/13 11:05:58;;;;;;;17.07;15.90;;;24.90;99.90;;;;;;2581376;54;20457;-57
2021/08/13 11:08:57;;;;;;;17.20;15.13;;;24.90;99.90;;;;;;2579307;54;20421;-57
2021/08/13 11:11:29;;;;;;;17.37;16.17;;;24.90;99.90;;;;;;2577083;54;20410;-57
2021/08/13 11:13:58;;;;;;;20.43;15.70;;;24.90;99.90;;;;;;2575282;47;20410;-58
2021/08/13 11:16:39;;;;;;;17.83;16.27;;;24.90;99.90;;;;;;2578607;39;20696;-56
2021/08/13 11:19:13;;;;;;;17.00;15.53;;;25.00;99.90;;;;;;2575350;39;20633;-56
2021/08/13 11:21:48;;;;;;;16.73;15.50;;;25.00;99.90;;;;;;2576471;54;21060;-55
2021/08/13 11:24:23;;;;;;;17.67;16.37;;;25.00;99.90;;;;;;2575212;39;20665;-57
2021/08/13 11:27:12;;;;;;;18.83;16.87;;;25.00;99.90;;;;;;2579999;54;20420;-58
2021/08/13 11:29:48;;;;;;;17.10;15.70;;;25.00;99.90;;;;;;2581195;54;20432;-58
2021/08/13 11:32:34;;;;;;;16.60;15.50;;;24.90;99.90;;;;;;2561444;54;20406;-56
2021/08/13 11:35:09;;;;;;;16.73;15.43;;;25.00;99.90;;;;;;2582810;47;20476;-57
2021/08/13 11:37:54;;;;;;;17.77;16.37;;;25.00;99.90;;;;;;2584781;54;20402;-57
2021/08/13 11:40:47;;;;;;;15.87;14.77;;;25.00;99.90;;;;;;2586837;54;20424;-56
2021/08/13 11:43:19;;;;;;;18.03;16.20;;;25.00;99.90;;;;;;2559917;39;20800;-57
2021/08/13 11:45:51;;;;;;;16.40;15.30;;;25.00;99.90;;;;;;2587713;54;20987;-57
2021/08/13 11:48:33;;;;;;;16.90;15.70;;;25.00;99.90;;;;;;2584761;47;20426;-56
2021/08/13 11:51:10;;;;;;;19.20;17.60;;;25.00;99.90;;;;;;2583518;54;21167;-57
2021/08/13 11:53:40;;;;;;;17.57;16.30;;;25.00;99.90;;;;;;2586857;54;20493;-57
2021/08/13 11:56:23;;;;;;;17.70;16.30;;;25.00;99.90;;;;;;2581644;47;21782;-58
2021/08/13 11:59:02;;;;;;;17.30;16.10;;;25.00;99.90;;;;;;2584482;39;20626;-56
2021/08/13 12:01:32;;;;;;;18.90;17.50;;;25.00;99.90;;;;;;2582690;54;20417;-57
2021/08/13 12:04:18;;;;;;;18.60;17.30;;;25.00;99.90;;;;;;2582539;54;20482;-57
2021/08/13 12:07:08;;;;;;;16.60;15.40;;;25.00;99.90;;;;;;2587659;39;20675;-55
2021/08/13 12:09:42;;;;;;;17.50;16.10;;;25.00;99.90;;;;;;2586353;54;20378;-57
2021/08/13 12:12:18;;;;;;;18.53;16.83;;;25.00;99.90;;;;;;2583870;54;20429;-57
2021/08/13 12:14:55;;;;;;;17.30;15.70;;;25.00;99.90;;;;;;2582914;54;20638;-57
2021/08/13 12:17:24;;;;;;;21.33;17.90;;;25.00;99.90;;;;;;2585706;39;20804;-58
2021/08/13 12:19:57;;;;;;;18.10;16.80;;;25.00;99.90;;;;;;2589083;54;20458;-57
2021/08/13 12:22:34;;;;;;;17.23;15.93;;;25.00;99.90;;;;;;2586142;39;20805;-58
2021/08/13 12:25:08;;;;;;;19.17;17.87;;;25.00;99.90;;;;;;2584106;51;20573;-57
2021/08/13 12:27:42;;;;;;;17.80;16.60;;;25.00;99.90;;;;;;2587080;54;21016;-57
2021/08/13 12:30:18;;;;;;;18.13;16.83;;;25.00;99.90;;;;;;2593155;54;20398;-58
2021/08/13 12:32:48;;;;;;;18.23;16.67;;;25.00;99.90;;;;;;2592648;54;20394;-57
2021/08/13 12:35:18;;;;;;;19.60;18.03;;;25.00;99.90;;;;;;2592240;54;20489;-57
2021/08/13 12:37:47;;;;;;;18.73;17.23;;;25.00;99.90;;;;;;2595700;54;20418;-58
2021/08/13 12:40:19;;;;;;;18.17;16.87;;;25.00;99.90;;;;;;2593654;54;20522;-57
2021/08/13 12:42:53;;;;;;;18.57;17.23;;;25.00;99.90;;;;;;2594787;54;20410;-57
2021/08/13 12:45:24;;;;;;;18.50;17.20;;;25.00;99.90;;;;;;2594817;54;20398;-56
2021/08/13 12:47:54;;;;;;;19.40;17.80;;;25.00;99.90;;;;;;2594329;39;20787;-56
2021/08/13 12:50:25;;;;;;;20.03;18.67;;;25.00;99.90;;;;;;2589761;54;20475;-56
2021/08/13 12:53:07;;;;;;;18.77;17.17;;;25.00;99.90;;;;;;2591099;54;20390;-57
2021/08/13 12:55:45;;;;;;;16.03;14.93;;;25.00;99.90;;;;;;2592577;54;20405;-57
2021/08/13 12:58:33;;;;;;;18.17;16.97;;;25.00;99.90;;;;;;2592074;54;20383;-58